Time;durP1;ratioP1;P1;durP2;ratioP2;P2;SDS_P1;SDS_P2;PMS_P1;PMS_P2;Temp;Humidity;BMP_temperature;BMP_pressure;BME280_temperature;BME280_humidity;BME280_pressure;Samples;Min_cycle;Max_cycle;Signal;HPM_P1;HPM_P2
2021/03/27 00:00:44;;;;;;;75.20;34.65;;;180.10;1510.40;;;;;;4933043;29;20063;-75
2021/03/27 00:03:12;;;;;;;67.03;34.90;;;204.80;1510.40;;;;;;4933354;29;20075;-75
2021/03/27 00:05:47;;;;;;;62.65;32.15;;;180.00;1510.40;;;;;;4933276;29;20032;-74
2021/03/27 00:08:21;;;;;;;67.00;34.88;;;179.90;1536.00;;;;;;4933332;29;20024;-74
2021/03/27 00:11:08;;;;;;;62.92;34.00;;;179.80;1536.00;;;;;;4933549;29;20067;-75
2021/03/27 00:13:49;;;;;;;;;;;179.60;1561.60;;;;;;4930732;29;20032;-75
2021/03/27 00:16:36;;;;;;;73.38;34.67;;;179.70;1561.60;;;;;;4955227;28;19912;-75
2021/03/27 00:19:23;;;;;;;80.82;37.80;;;179.80;1561.60;;;;;;5033956;28;20101;-75
2021/03/27 00:21:55;;;;;;;85.70;39.72;;;180.00;1561.60;;;;;;5038919;28;20091;-73
2021/03/27 00:24:45;;;;;;;76.00;38.13;;;180.10;1536.00;;;;;;5043749;28;20021;-82
2021/03/27 00:27:22;;;;;;;79.18;40.78;;;204.80;1510.40;;;;;;5028917;28;20045;-82
2021/03/27 00:29:54;;;;;;;74.35;38.90;;;204.80;1510.40;;;;;;5035861;28;20029;-83
2021/03/27 00:32:54;;;;;;;83.15;38.97;;;180.10;1510.40;;;;;;5040175;28;20036;-74
2021/03/27 00:35:43;;;;;;;76.22;37.65;;;180.00;1536.00;;;;;;4971548;28;20034;-73
2021/03/27 00:38:18;;;;;;;66.07;35.58;;;179.90;1536.00;;;;;;4985749;28;20077;-74
2021/03/27 00:40:49;;;;;;;74.60;36.70;;;179.70;1536.00;;;;;;4956713;28;20050;-74
2021/03/27 00:43:22;;;;;;;73.93;36.83;;;179.70;1561.60;;;;;;4971818;28;20035;-74
2021/03/27 00:45:54;;;;;;;75.32;36.63;;;179.60;1561.60;;;;;;4971760;28;20538;-74
2021/03/27 00:48:46;;;;;;;69.15;35.85;;;179.70;1561.60;;;;;;4971982;28;20085;-74
2021/03/27 00:51:17;;;;;;;80.72;37.58;;;179.60;1536.00;;;;;;4971601;28;20037;-74
2021/03/27 00:53:47;;;;;;;78.20;38.72;;;179.60;1561.60;;;;;;4971489;28;20042;-74
2021/03/27 00:56:19;;;;;;;74.45;38.05;;;179.50;1561.60;;;;;;4971080;28;20408;-74
2021/03/27 00:59:14;;;;;;;76.55;39.13;;;179.50;1561.60;;;;;;4970790;28;20045;-74
2021/03/27 01:01:43;;;;;;;71.25;36.47;;;179.70;1536.00;;;;;;4978894;28;20042;-76
2021/03/27 01:04:16;;;;;;;74.53;36.95;;;179.90;1536.00;;;;;;4955849;28;20545;-74
2021/03/27 01:06:54;;;;;;;76.15;37.03;;;179.90;1536.00;;;;;;4971287;28;20046;-74
2021/03/27 01:09:30;;;;;;;72.85;36.17;;;180.00;1536.00;;;;;;4971941;28;20027;-75
2021/03/27 01:12:10;;;;;;;72.43;37.40;;;180.00;1536.00;;;;;;5007421;28;20389;-75
2021/03/27 01:14:42;;;;;;;74.15;36.58;;;179.80;1536.00;;;;;;5032061;28;20263;-79
2021/03/27 01:17:12;;;;;;;68.55;35.60;;;179.70;1561.60;;;;;;5032192;28;20017;-74
2021/03/27 01:19:51;;;;;;;67.32;35.45;;;179.50;1587.20;;;;;;5031672;28;20045;-74
2021/03/27 01:22:18;;;;;;;72.95;36.75;;;179.50;1587.20;;;;;;5032052;28;20018;-73
2021/03/27 01:24:45;;;;;;;71.45;36.20;;;179.50;1587.20;;;;;;5032494;28;20414;-74
2021/03/27 01:27:16;;;;;;;78.38;39.17;;;179.50;1587.20;;;;;;5031838;28;20052;-74
2021/03/27 01:29:57;;;;;;;70.55;37.53;;;179.50;1587.20;;;;;;5031882;28;20029;-75
2021/03/27 01:32:41;;;;;;;71.45;36.55;;;179.50;1587.20;;;;;;5032040;28;20495;-74
2021/03/27 01:35:12;;;;;;;74.75;37.90;;;179.50;1587.20;;;;;;5031790;28;20029;-74
2021/03/27 01:38:07;;;;;;;67.50;37.38;;;179.40;1587.20;;;;;;5031877;28;20029;-74
2021/03/27 01:41:08;;;;;;;65.07;34.20;;;179.30;1638.40;;;;;;5030086;28;20049;-74
2021/03/27 01:44:21;;;;;;;75.80;35.10;;;179.30;1664.00;;;;;;5031962;28;20025;-75
2021/03/27 01:46:55;;;;;;;73.05;37.38;;;154.50;1664.00;;;;;;5031389;28;20033;-74
2021/03/27 01:49:42;;;;;;;68.00;35.20;;;154.50;1638.40;;;;;;5014001;28;20032;-76
2021/03/27 01:52:22;;;;;;;;;;;154.50;1612.80;;;;;;5034477;28;20021;-76
2021/03/27 01:55:13;;;;;;;73.72;35.42;;;154.50;1638.40;;;;;;5018925;28;20327;-75
2021/03/27 01:57:51;;;;;;;75.55;36.78;;;154.40;1638.40;;;;;;5035179;28;20018;-77
2021/03/27 02:00:32;;;;;;;66.72;35.60;;;154.40;1638.40;;;;;;5034482;28;20067;-74
2021/03/27 02:03:11;;;;;;;79.60;38.72;;;154.40;1638.40;;;;;;5035434;28;20017;-74
2021/03/27 02:05:41;;;;;;;83.00;39.17;;;154.40;1638.40;;;;;;5035255;28;20018;-74
2021/03/27 02:08:25;;;;;;;76.82;38.63;;;179.20;1612.80;;;;;;5034979;28;20047;-77
2021/03/27 02:11:06;;;;;;;68.28;36.42;;;179.20;1612.80;;;;;;5033547;28;20033;-74
2021/03/27 02:14:03;;;;;;;70.85;36.83;;;179.30;1612.80;;;;;;5035784;28;20053;-79
2021/03/27 02:16:35;;;;;;;84.15;40.95;;;179.30;1612.80;;;;;;5034310;28;20436;-76
2021/03/27 02:19:05;;;;;;;79.55;36.75;;;179.30;1612.80;;;;;;5035289;28;20033;-76
2021/03/27 02:21:35;;;;;;;72.85;39.20;;;179.40;1587.20;;;;;;5035546;28;20034;-76
2021/03/27 02:24:27;;;;;;;77.85;38.38;;;179.40;1587.20;;;;;;5035465;28;20030;-76
2021/03/27 02:27:02;;;;;;;71.80;39.47;;;179.40;1587.20;;;;;;5017446;28;20496;-77
2021/03/27 02:29:49;;;;;;;81.18;41.20;;;154.20;1664.00;;;;;;5017775;28;20537;-76
2021/03/27 02:32:27;;;;;;;78.40;38.00;;;154.10;1664.00;;;;;;5035310;28;20021;-76
2021/03/27 02:35:31;;;;;;;75.18;38.38;;;154.30;1664.00;;;;;;5035076;28;20434;-76
2021/03/27 02:38:13;;;;;;;84.97;39.78;;;154.50;1612.80;;;;;;4974022;28;20416;-76
2021/03/27 02:40:48;;;;;;;75.35;38.38;;;179.40;1587.20;;;;;;4974241;28;20093;-76
2021/03/27 02:43:32;;;;;;;65.03;35.72;;;179.40;1587.20;;;;;;4974173;28;20034;-76
2021/03/27 02:46:26;;;;;;;76.07;36.00;;;154.50;1638.40;;;;;;4973993;28;20031;-75
2021/03/27 02:49:11;;;;;;;69.40;35.65;;;154.10;1689.60;;;;;;4957973;28;20056;-75
2021/03/27 02:52:04;;;;;;;63.83;34.55;;;153.80;1740.80;;;;;;4973310;28;20513;-75
2021/03/27 02:54:44;;;;;;;65.75;35.67;;;128.80;1766.40;;;;;;4913524;29;20033;-79
2021/03/27 02:57:33;;;;;;;68.50;36.05;;;128.70;1817.60;;;;;;4916958;29;20040;-79
2021/03/27 03:00:11;;;;;;;67.13;35.22;;;128.40;1843.20;;;;;;4917382;29;20092;-75
2021/03/27 03:02:52;;;;;;;74.25;35.45;;;128.30;1868.80;;;;;;4920297;29;20051;-75
2021/03/27 03:05:37;;;;;;;75.25;37.97;;;128.20;1868.80;;;;;;4916116;29;20028;-75
2021/03/27 03:08:30;;;;;;;75.22;39.75;;;128.40;1868.80;;;;;;4899672;29;20040;-76
2021/03/27 03:11:16;;;;;;;69.50;36.75;;;128.60;1843.20;;;;;;4916775;29;20088;-74
2021/03/27 03:14:01;;;;;;;68.53;36.47;;;128.90;1817.60;;;;;;4915680;29;20035;-75
2021/03/27 03:16:37;;;;;;;72.32;37.35;;;153.70;1766.40;;;;;;4951882;29;20146;-76
2021/03/27 03:19:10;;;;;;;;;;;153.80;1740.80;;;;;;4951784;29;20039;-76
2021/03/27 03:21:50;;;;;;;78.95;35.28;;;153.80;1740.80;;;;;;4953354;29;20311;-75
2021/03/27 03:24:32;;;;;;;75.45;36.33;;;153.80;1740.80;;;;;;4953351;29;20023;-75
2021/03/27 03:27:31;;;;;;;75.90;37.03;;;153.90;1740.80;;;;;;4950392;29;20043;-75
2021/03/27 03:30:27;;;;;;;73.38;35.63;;;153.80;1740.80;;;;;;4952864;28;20502;-76
2021/03/27 03:33:14;;;;;;;77.22;37.83;;;153.80;1715.20;;;;;;5019783;28;20025;-76
2021/03/27 03:35:45;;;;;;;;;;;153.90;1689.60;;;;;;5030475;28;20025;-75
2021/03/27 03:38:17;;;;;;;76.78;36.38;;;153.90;1689.60;;;;;;5014434;28;19924;-75
2021/03/27 03:40:51;;;;;;;74.05;37.28;;;154.00;1689.60;;;;;;5033134;28;20485;-76
2021/03/27 03:43:27;;;;;;;74.88;36.97;;;154.00;1689.60;;;;;;5024785;28;20465;-77
2021/03/27 03:46:11;;;;;;;60.30;30.27;;;153.90;1689.60;;;;;;5014110;28;20103;-76
2021/03/27 03:48:52;;;;;;;81.72;35.88;;;153.60;1740.80;;;;;;5014328;28;20022;-76
2021/03/27 03:51:37;;;;;;;75.28;38.40;;;128.80;1740.80;;;;;;4997783;28;20025;-76
2021/03/27 03:54:20;;;;;;;84.75;38.55;;;128.60;1766.40;;;;;;5013615;28;20101;-76
2021/03/27 03:57:13;;;;;;;77.20;41.33;;;128.40;1843.20;;;;;;5014367;28;20032;-77
2021/03/27 04:00:04;;;;;;;82.30;40.00;;;128.00;1868.80;;;;;;5033162;28;20021;-76
2021/03/27 04:02:47;;;;;;;76.43;37.63;;;103.30;1843.20;;;;;;5004709;28;20088;-76
2021/03/27 04:05:20;;;;;;;81.32;37.97;;;128.00;1868.80;;;;;;5017639;28;20018;-76
2021/03/27 04:08:03;;;;;;;71.82;36.50;;;128.10;1843.20;;;;;;5021092;28;20029;-76
2021/03/27 04:10:31;;;;;;;68.05;34.63;;;128.30;1817.60;;;;;;5017383;28;20041;-77
2021/03/27 04:13:02;;;;;;;74.72;37.90;;;128.40;1792.00;;;;;;5013076;28;20555;-76
2021/03/27 04:15:52;;;;;;;75.35;36.97;;;128.40;1792.00;;;;;;5026878;28;20026;-76
2021/03/27 04:18:33;;;;;;;75.80;36.08;;;128.50;1792.00;;;;;;5022234;28;20018;-76
2021/03/27 04:21:24;;;;;;;78.38;35.80;;;128.60;1766.40;;;;;;5017574;28;20026;-76
2021/03/27 04:24:04;;;;;;;74.45;36.53;;;128.50;1766.40;;;;;;5019524;28;20046;-79
2021/03/27 04:26:36;;;;;;;76.50;34.88;;;128.40;1817.60;;;;;;5015423;28;20041;-77
2021/03/27 04:29:19;;;;;;;78.15;37.28;;;128.10;1843.20;;;;;;5012052;28;20025;-77
2021/03/27 04:32:13;;;;;;;73.30;35.83;;;103.10;1817.60;;;;;;5012336;28;20025;-75
2021/03/27 04:34:56;;;;;;;79.85;38.35;;;103.30;1817.60;;;;;;5022038;28;20029;-76
2021/03/27 04:37:43;;;;;;;71.72;37.45;;;103.10;1843.20;;;;;;5012323;28;20042;-75
2021/03/27 04:40:23;;;;;;;80.32;37.17;;;102.80;1843.20;;;;;;4999664;28;20032;-75
2021/03/27 04:43:11;;;;;;;77.68;35.78;;;102.60;1894.40;;;;;;5014118;28;20022;-78
2021/03/27 04:45:52;;;;;;;67.53;35.78;;;102.40;1894.40;;;;;;5031218;28;20022;-74
2021/03/27 04:48:40;;;;;;;71.05;35.00;;;77.50;1945.60;;;;;;5020497;28;20026;-76
2021/03/27 04:51:30;;;;;;;67.57;33.72;;;77.20;1971.20;;;;;;5017947;28;20022;-75
2021/03/27 04:54:18;;;;;;;70.82;36.17;;;76.90;1996.80;;;;;;5014386;28;20022;-75
2021/03/27 04:56:55;;;;;;;82.90;36.35;;;52.10;2048.00;;;;;;5025422;28;20057;-75
2021/03/27 04:59:50;;;;;;;74.60;32.75;;;51.80;2099.20;;;;;;5015149;28;20097;-76
2021/03/27 05:02:20;;;;;;;69.05;33.97;;;51.80;2099.20;;;;;;5014071;28;20037;-75
2021/03/27 05:05:04;;;;;;;70.93;34.90;;;51.90;2099.20;;;;;;5019168;28;20018;-75
2021/03/27 05:07:38;;;;;;;70.85;34.05;;;52.00;2073.60;;;;;;5014136;28;20517;-76
2021/03/27 05:10:26;;;;;;;72.47;34.50;;;52.10;2099.20;;;;;;5023044;28;20049;-75
2021/03/27 05:13:15;;;;;;;71.57;35.25;;;76.80;2073.60;;;;;;5019707;28;20047;-75
2021/03/27 05:15:48;;;;;;;72.78;32.70;;;76.90;2073.60;;;;;;4992315;28;20034;-80
2021/03/27 05:18:29;;;;;;;67.90;33.67;;;77.00;2073.60;;;;;;4991922;28;20026;-79
2021/03/27 05:21:13;;;;;;;76.10;35.35;;;77.10;2073.60;;;;;;4989280;28;20050;-75
2021/03/27 05:23:53;;;;;;;71.05;35.63;;;77.20;2073.60;;;;;;4990077;28;20069;-77
2021/03/27 05:26:42;;;;;;;66.78;34.20;;;77.40;2048.00;;;;;;4989869;28;20034;-76
2021/03/27 05:29:44;;;;;;;70.13;34.05;;;77.60;2022.40;;;;;;4987796;28;20038;-76
2021/03/27 05:32:35;;;;;;;70.78;34.50;;;77.70;2022.40;;;;;;4990239;28;20073;-76
2021/03/27 05:35:19;;;;;;;65.82;33.70;;;102.40;1996.80;;;;;;4990950;28;20041;-76
2021/03/27 05:37:53;;;;;;;73.47;32.50;;;102.80;1996.80;;;;;;4989868;28;20034;-76
2021/03/27 05:40:24;;;;;;;67.78;33.20;;;103.00;1945.60;;;;;;4972503;28;20045;-76
2021/03/27 05:43:11;;;;;;;64.00;31.75;;;103.10;1945.60;;;;;;4974142;28;20030;-76
2021/03/27 05:46:32;;;;;;;61.22;32.42;;;103.20;1945.60;;;;;;4987575;28;20117;-75
2021/03/27 05:49:16;;;;;;;61.67;32.35;;;128.00;1971.20;;;;;;4892851;29;20032;-75
2021/03/27 05:52:19;;;;;;;64.88;33.25;;;128.10;1996.80;;;;;;4894692;29;20096;-76
2021/03/27 05:55:15;;;;;;;63.17;30.88;;;128.30;1971.20;;;;;;4934635;29;20044;-75
2021/03/27 05:57:55;;;;;;;63.58;27.65;;;128.60;1971.20;;;;;;4916052;29;20107;-75
2021/03/27 06:00:27;;;;;;;62.35;28.42;;;128.90;1945.60;;;;;;4931385;29;20044;-76
2021/03/27 06:03:05;;;;;;;43.53;25.35;;;153.90;1920.00;;;;;;4931674;29;20054;-76
2021/03/27 06:06:07;;;;;;;51.17;25.95;;;153.90;1868.80;;;;;;4929381;29;20031;-76
2021/03/27 06:09:07;;;;;;;56.42;26.50;;;154.10;1843.20;;;;;;4931817;29;20039;-76
2021/03/27 06:11:44;;;;;;;49.08;26.08;;;154.30;1843.20;;;;;;4929766;29;20027;-75
2021/03/27 06:14:27;;;;;;;54.33;27.60;;;154.40;1817.60;;;;;;4928837;29;20035;-75
2021/03/27 06:17:30;;;;;;;58.20;29.80;;;179.20;1817.60;;;;;;4930062;29;20039;-75
2021/03/27 06:20:19;;;;;;;58.85;29.52;;;179.30;1817.60;;;;;;4986284;28;20060;-75
2021/03/27 06:23:08;;;;;;;49.00;25.38;;;179.50;1843.20;;;;;;5027900;28;20072;-76
2021/03/27 06:25:52;;;;;;;47.95;25.15;;;179.70;1766.40;;;;;;5025359;28;20069;-75
2021/03/27 06:28:42;;;;;;;58.65;32.78;;;179.70;1792.00;;;;;;5016497;28;20042;-75
2021/03/27 06:31:30;;;;;;;46.75;26.00;;;179.70;1792.00;;;;;;5012140;28;20022;-74
2021/03/27 06:34:14;;;;;;;48.85;23.63;;;179.90;1792.00;;;;;;5012522;28;20042;-77
2021/03/27 06:37:12;;;;;;;41.90;24.17;;;180.10;1817.60;;;;;;5015523;28;20156;-75
2021/03/27 06:39:49;;;;;;;43.83;24.50;;;204.90;1792.00;;;;;;5017138;28;20034;-74
2021/03/27 06:43:03;;;;;;;44.67;24.60;;;205.10;1715.20;;;;;;5017916;28;20026;-75
2021/03/27 06:45:44;;;;;;;47.65;24.58;;;205.30;1740.80;;;;;;4993748;28;20030;-75
2021/03/27 06:48:30;;;;;;;37.53;22.48;;;205.50;1689.60;;;;;;4992263;28;20022;-78
2021/03/27 06:51:20;;;;;;;41.10;21.45;;;205.70;1638.40;;;;;;4994872;28;20161;-75
2021/03/27 06:54:04;;;;;;;42.00;23.15;;;230.40;1638.40;;;;;;4992320;28;20034;-75
2021/03/27 06:56:47;;;;;;;45.80;24.05;;;230.60;1587.20;;;;;;4976896;28;20030;-74
2021/03/27 06:59:42;;;;;;;42.25;22.38;;;230.70;1612.80;;;;;;4976750;28;20133;-74
2021/03/27 07:02:22;;;;;;;44.33;23.00;;;230.90;1587.20;;;;;;4997338;28;20053;-74
2021/03/27 07:04:54;;;;;;;44.42;22.15;;;231.20;1561.60;;;;;;4992934;28;20030;-74
2021/03/27 07:08:02;;;;;;;44.35;21.38;;;231.20;1561.60;;;;;;4993017;28;20554;-82
2021/03/27 07:10:31;;;;;;;47.17;23.42;;;256.10;1536.00;;;;;;4999765;28;20034;-75
2021/03/27 07:13:08;;;;;;;49.25;19.70;;;256.30;1510.40;;;;;;4998885;28;20085;-75
2021/03/27 07:16:21;;;;;;;37.97;20.83;;;256.40;1510.40;;;;;;4993526;28;20034;-76
2021/03/27 07:19:15;;;;;;;43.45;23.48;;;256.60;1510.40;;;;;;4953798;29;20590;-76
2021/03/27 07:22:03;;;;;;;32.83;19.25;;;256.80;1484.80;;;;;;4955994;28;20147;-78
2021/03/27 07:24:40;;;;;;;35.67;19.88;;;281.60;1459.20;;;;;;4972709;28;20023;-76
2021/03/27 07:27:44;;;;;;;28.83;18.00;;;281.80;1459.20;;;;;;4973098;28;20054;-75
2021/03/27 07:30:32;;;;;;;31.20;17.60;;;281.80;1408.00;;;;;;4956794;28;20027;-75
2021/03/27 07:32:59;;;;;;;33.03;17.90;;;281.90;1408.00;;;;;;4972718;28;20022;-75
2021/03/27 07:35:47;;;;;;;35.75;19.23;;;282.00;1408.00;;;;;;4972483;28;20030;-76
2021/03/27 07:38:36;;;;;;;32.45;19.92;;;282.30;1408.00;;;;;;4972505;28;20043;-75
2021/03/27 07:41:22;;;;;;;34.85;16.27;;;282.40;1382.40;;;;;;4970778;28;20091;-76
2021/03/27 07:44:25;;;;;;;24.88;15.70;;;282.50;1331.20;;;;;;4956624;28;20142;-77
2021/03/27 07:47:12;;;;;;;31.20;18.67;;;307.30;1382.40;;;;;;4962503;28;20487;-75
2021/03/27 07:49:46;;;;;;;28.17;15.45;;;307.30;1356.80;;;;;;4997904;28;20050;-77
2021/03/27 07:52:23;;;;;;;36.35;17.50;;;307.50;1305.60;;;;;;5023696;28;20489;-76
2021/03/27 07:55:01;;;;;;;28.60;15.57;;;307.50;1305.60;;;;;;5026233;28;20021;-75
2021/03/27 07:57:50;;;;;;;26.80;16.67;;;307.60;1280.00;;;;;;5009950;28;20444;-77
2021/03/27 08:00:34;;;;;;;28.45;16.23;;;307.60;1305.60;;;;;;5026256;28;20038;-76
2021/03/27 08:03:25;;;;;;;26.17;16.33;;;307.70;1305.60;;;;;;5032919;28;20491;-76
2021/03/27 08:06:17;;;;;;;29.10;14.85;;;307.80;1280.00;;;;;;5022968;28;20018;-75
2021/03/27 08:09:01;;;;;;;29.77;14.88;;;307.80;1254.40;;;;;;4990441;28;20517;-77
2021/03/27 08:11:48;;;;;;;30.85;16.63;;;308.10;1254.40;;;;;;4984679;28;20030;-78
2021/03/27 08:14:41;;;;;;;29.48;14.88;;;308.10;1254.40;;;;;;4981782;28;20035;-77
2021/03/27 08:17:26;;;;;;;25.83;15.10;;;332.90;1280.00;;;;;;4985031;28;20532;-76
2021/03/27 08:19:54;;;;;;;29.83;15.40;;;332.90;1254.40;;;;;;4991151;28;20166;-76
2021/03/27 08:22:20;;;;;;;25.45;14.57;;;332.90;1254.40;;;;;;4991489;28;20537;-76
2021/03/27 08:25:19;;;;;;;29.15;15.32;;;333.00;1254.40;;;;;;4991666;28;20030;-81
2021/03/27 08:28:20;;;;;;;20.83;12.95;;;333.00;1203.20;;;;;;4991157;28;20410;-76
2021/03/27 08:31:15;;;;;;;23.27;15.35;;;333.00;1228.80;;;;;;4974758;28;20084;-75
2021/03/27 08:34:14;;;;;;;26.23;15.25;;;333.20;1280.00;;;;;;4991298;28;20085;-77
2021/03/27 08:37:00;;;;;;;24.42;13.65;;;333.40;1228.80;;;;;;4991554;28;20026;-77
2021/03/27 08:39:44;;;;;;;27.27;15.57;;;333.50;1203.20;;;;;;4975178;28;20038;-76
2021/03/27 08:42:51;;;;;;;55.53;17.33;;;333.60;1254.40;;;;;;4991389;28;20038;-75
2021/03/27 08:45:40;;;;;;;28.30;14.38;;;333.60;1177.60;;;;;;4999505;28;20034;-77
2021/03/27 08:48:30;;;;;;;25.40;14.27;;;333.70;1177.60;;;;;;5013105;28;20058;-75
2021/03/27 08:51:14;;;;;;;25.85;12.77;;;333.70;1177.60;;;;;;5012906;28;20032;-73
2021/03/27 08:54:01;;;;;;;20.55;12.73;;;333.70;1152.00;;;;;;5013194;28;20030;-75
2021/03/27 08:57:04;;;;;;;25.48;14.60;;;358.40;1177.60;;;;;;5012983;28;20022;-74
2021/03/27 08:59:57;;;;;;;29.60;12.38;;;358.60;1203.20;;;;;;5012621;28;20030;-79
2021/03/27 09:02:31;;;;;;;20.65;13.63;;;358.60;1075.20;;;;;;5012865;28;20123;-75
2021/03/27 09:05:15;;;;;;;24.55;14.30;;;358.70;1152.00;;;;;;5028132;28;20030;-77
2021/03/27 09:07:59;;;;;;;28.75;14.30;;;358.80;1126.40;;;;;;5012722;28;20545;-78
2021/03/27 09:10:54;;;;;;;27.73;13.93;;;358.90;1126.40;;;;;;5012403;28;20529;-79
2021/03/27 09:13:38;;;;;;;21.35;14.65;;;358.90;1075.20;;;;;;4971424;28;20071;-78
2021/03/27 09:16:27;;;;;;;25.27;16.02;;;359.10;1152.00;;;;;;4971509;28;20035;-78
2021/03/27 09:19:17;;;;;;;27.67;15.50;;;359.20;1100.80;;;;;;4970591;28;20031;-75
2021/03/27 09:21:58;;;;;;;34.42;16.75;;;359.30;1075.20;;;;;;4971642;28;20042;-78
2021/03/27 09:24:51;;;;;;;24.77;16.25;;;384.00;1049.60;;;;;;4971259;28;20066;-74
2021/03/27 09:27:16;;;;;;;28.45;15.40;;;384.10;1049.60;;;;;;4969143;28;20133;-74
2021/03/27 09:29:48;;;;;;;33.10;19.20;;;384.30;1049.60;;;;;;4971434;28;20106;-74
2021/03/27 09:32:25;;;;;;;35.33;18.88;;;384.30;1049.60;;;;;;4971209;28;20602;-75
2021/03/27 09:35:05;;;;;;;27.17;16.27;;;384.40;1049.60;;;;;;4971294;28;20124;-77
2021/03/27 09:38:08;;;;;;;25.77;16.33;;;384.50;1049.60;;;;;;4970721;28;20062;-77
2021/03/27 09:40:55;;;;;;;32.08;19.65;;;384.60;1024.00;;;;;;4954866;28;20031;-78
2021/03/27 09:43:42;;;;;;;33.92;17.77;;;384.60;1049.60;;;;;;4970087;28;20042;-75
2021/03/27 09:46:36;;;;;;;;;;;384.90;998.40;;;;;;4967204;28;20502;-74
2021/03/27 09:49:30;;;;;;;28.50;16.58;;;384.90;998.40;;;;;;4949759;28;19925;-77
2021/03/27 09:52:13;;;;;;;35.88;17.98;;;409.70;1024.00;;;;;;4932303;29;20063;-73
2021/03/27 09:54:50;;;;;;;58.65;20.52;;;409.90;1049.60;;;;;;4931987;29;20059;-74
2021/03/27 09:57:41;;;;;;;38.72;17.63;;;410.10;1049.60;;;;;;4932245;29;20110;-73
2021/03/27 10:00:40;;;;;;;44.17;20.20;;;410.20;1024.00;;;;;;4932176;29;20062;-73
2021/03/27 10:03:16;;;;;;;35.97;20.30;;;410.40;998.40;;;;;;4916341;29;20090;-74
2021/03/27 10:06:17;;;;;;;31.17;17.98;;;435.30;998.40;;;;;;4915769;29;20036;-73
2021/03/27 10:09:25;;;;;;;31.45;17.52;;;435.50;896.00;;;;;;4931293;29;20047;-74
2021/03/27 10:12:00;;;;;;;29.50;16.98;;;435.60;947.20;;;;;;4877446;29;20041;-77
2021/03/27 10:14:31;;;;;;;31.48;17.45;;;435.90;896.00;;;;;;4863321;29;20036;-74
2021/03/27 10:17:05;;;;;;;29.20;17.63;;;436.10;870.40;;;;;;4878593;29;20165;-75
2021/03/27 10:19:36;;;;;;;25.92;16.95;;;436.10;947.20;;;;;;4862732;29;20032;-74
2021/03/27 10:22:17;;;;;;;59.00;20.92;;;461.00;870.40;;;;;;4879049;29;20076;-74
2021/03/27 10:24:45;;;;;;;26.42;16.50;;;461.30;921.60;;;;;;4882528;29;20056;-77
2021/03/27 10:27:19;;;;;;;27.08;17.48;;;461.40;844.80;;;;;;4897770;29;20096;-74
2021/03/27 10:29:58;;;;;;;28.67;16.75;;;461.50;844.80;;;;;;4929542;29;20091;-74
2021/03/27 10:32:32;;;;;;;31.15;18.75;;;461.70;844.80;;;;;;4919029;29;20028;-73
2021/03/27 10:35:07;;;;;;;25.05;15.75;;;461.70;896.00;;;;;;4935015;29;20043;-74
2021/03/27 10:37:56;;;;;;;31.45;17.92;;;461.70;844.80;;;;;;4934941;29;20471;-73
2021/03/27 10:40:53;;;;;;;31.08;17.95;;;486.50;819.20;;;;;;4929975;29;20020;-72
2021/03/27 10:43:42;;;;;;;26.35;17.17;;;486.70;819.20;;;;;;4935572;29;20028;-73
2021/03/27 10:46:19;;;;;;;32.78;17.55;;;486.60;768.00;;;;;;4935348;29;20110;-74
2021/03/27 10:49:23;;;;;;;41.75;16.73;;;486.80;844.80;;;;;;4981618;28;20034;-74
2021/03/27 10:52:04;;;;;;;26.83;15.63;;;486.70;844.80;;;;;;4954777;29;20037;-73
2021/03/27 10:54:32;;;;;;;26.63;16.25;;;487.00;716.80;;;;;;4954239;28;20531;-76
2021/03/27 10:57:07;;;;;;;21.15;14.60;;;487.10;793.60;;;;;;4944733;29;20067;-76
2021/03/27 10:59:41;;;;;;;27.13;16.40;;;487.30;768.00;;;;;;4954005;29;20058;-74
2021/03/27 11:02:43;;;;;;;30.65;19.38;;;512.20;716.80;;;;;;4951751;29;20110;-75
2021/03/27 11:05:29;;;;;;;33.42;19.13;;;512.40;716.80;;;;;;4951775;29;20139;-74
2021/03/27 11:08:33;;;;;;;27.85;18.73;;;512.20;742.40;;;;;;4950914;28;20090;-75
2021/03/27 11:11:08;;;;;;;25.27;16.65;;;512.30;742.40;;;;;;4950587;29;21537;-73
2021/03/27 11:14:01;;;;;;;32.97;19.10;;;512.40;768.00;;;;;;4953665;29;20039;-74
2021/03/27 11:16:53;;;;;;;35.05;19.05;;;512.50;768.00;;;;;;4951323;29;20491;-74
2021/03/27 11:19:54;;;;;;;27.10;18.15;;;512.80;742.40;;;;;;4952871;29;20031;-75
2021/03/27 11:22:33;;;;;;;32.22;19.15;;;512.90;716.80;;;;;;4950081;28;20043;-75
2021/03/27 11:25:17;;;;;;;34.88;16.83;;;537.70;716.80;;;;;;4943779;29;20032;-77
2021/03/27 11:28:00;;;;;;;32.50;19.88;;;537.90;742.40;;;;;;4990134;28;20557;-75
2021/03/27 11:30:38;;;;;;;30.42;18.20;;;537.80;819.20;;;;;;5014285;28;20076;-75
2021/03/27 11:33:24;;;;;;;31.75;18.20;;;537.80;768.00;;;;;;5014407;28;20030;-76
2021/03/27 11:35:53;;;;;;;;;;;538.00;742.40;;;;;;5013725;28;20061;-76
2021/03/27 11:38:27;;;;;;;28.30;16.73;;;537.80;768.00;;;;;;5014164;28;19909;-76
2021/03/27 11:41:18;;;;;;;27.13;17.25;;;538.00;716.80;;;;;;5014310;28;20064;-76
2021/03/27 11:44:05;;;;;;;25.40;15.93;;;538.30;716.80;;;;;;5014407;28;20025;-75
2021/03/27 11:46:44;;;;;;;30.48;16.98;;;538.30;691.20;;;;;;5014375;28;20137;-75
2021/03/27 11:49:21;;;;;;;23.60;16.00;;;537.90;768.00;;;;;;5012378;28;20023;-75
2021/03/27 11:51:56;;;;;;;26.58;16.10;;;538.00;742.40;;;;;;5014130;28;20116;-75
2021/03/27 11:54:26;;;;;;;41.97;18.37;;;538.00;768.00;;;;;;5014060;28;20029;-74
2021/03/27 11:56:55;;;;;;;30.35;17.50;;;537.60;768.00;;;;;;5014040;28;20021;-75
2021/03/27 12:02:41;;;;;;;29.30;17.50;;;537.90;716.80;;;;;;5014155;28;20103;-73
2021/03/27 12:05:25;;;;;;;63.80;18.63;;;538.00;819.20;;;;;;5013564;28;20026;-74
2021/03/27 12:08:22;;;;;;;28.92;15.48;;;537.70;793.60;;;;;;5013660;28;20057;-74
2021/03/27 12:10:57;;;;;;;25.75;15.75;;;537.90;742.40;;;;;;5013159;28;20038;-71
2021/03/27 12:13:34;;;;;;;28.90;17.98;;;537.70;742.40;;;;;;5013853;28;20393;-72
2021/03/27 12:16:06;;;;;;;30.15;16.77;;;538.00;716.80;;;;;;5013561;28;20465;-72
2021/03/27 12:19:11;;;;;;;26.42;16.02;;;538.30;742.40;;;;;;5013720;28;20030;-73
2021/03/27 12:22:05;;;;;;;29.92;19.70;;;563.20;742.40;;;;;;5013469;28;20117;-75
2021/03/27 12:24:48;;;;;;;25.10;16.10;;;563.30;742.40;;;;;;5012278;28;20026;-75
2021/03/27 12:27:53;;;;;;;28.92;16.73;;;538.50;691.20;;;;;;5022233;28;20042;-74
2021/03/27 12:30:45;;;;;;;32.08;19.95;;;538.20;742.40;;;;;;5033025;28;20018;-75
2021/03/27 12:33:49;;;;;;;28.75;17.13;;;538.00;742.40;;;;;;5032979;28;20076;-74
2021/03/27 12:36:28;;;;;;;29.02;18.05;;;538.40;716.80;;;;;;5032868;28;20041;-74
2021/03/27 12:39:22;;;;;;;28.17;18.05;;;538.40;691.20;;;;;;5033271;28;20071;-75
2021/03/27 12:41:55;;;;;;;24.48;17.20;;;538.40;691.20;;;;;;5032936;28;20029;-76
2021/03/27 12:44:30;;;;;;;27.33;16.85;;;538.40;691.20;;;;;;5033088;28;20029;-75
2021/03/27 12:47:17;;;;;;;32.43;19.17;;;538.30;691.20;;;;;;5014691;28;20482;-75
2021/03/27 12:49:46;;;;;;;27.38;17.88;;;538.00;742.40;;;;;;5014872;28;20342;-74
2021/03/27 12:52:26;;;;;;;38.38;17.08;;;538.10;768.00;;;;;;5032559;28;20025;-77
2021/03/27 12:55:20;;;;;;;25.88;15.90;;;538.10;716.80;;;;;;5032963;28;20113;-80
2021/03/27 12:57:58;;;;;;;33.10;17.08;;;538.00;716.80;;;;;;5030956;28;20091;-74
2021/03/27 13:00:42;;;;;;;29.67;16.30;;;537.80;691.20;;;;;;5032652;28;20037;-78
2021/03/27 13:03:45;;;;;;;32.80;18.35;;;512.80;716.80;;;;;;5032269;28;20473;-76
2021/03/27 13:06:30;;;;;;;31.25;18.00;;;512.60;793.60;;;;;;5032232;28;20034;-73
2021/03/27 13:09:11;;;;;;;23.60;14.68;;;512.60;768.00;;;;;;5013071;28;20540;-76
2021/03/27 13:11:56;;;;;;;26.27;14.88;;;512.60;742.40;;;;;;5032449;28;20071;-74
2021/03/27 13:14:25;;;;;;;31.67;18.33;;;512.70;716.80;;;;;;5032342;28;20052;-74
2021/03/27 13:16:54;;;;;;;22.95;14.80;;;512.90;742.40;;;;;;5032397;28;20254;-74
2021/03/27 13:19:43;;;;;;;27.30;15.13;;;512.90;691.20;;;;;;5032270;28;20053;-74
2021/03/27 13:22:46;;;;;;;24.38;15.27;;;512.90;716.80;;;;;;5031879;28;20061;-74
2021/03/27 13:25:22;;;;;;;19.77;12.95;;;512.70;716.80;;;;;;4951944;29;20078;-74
2021/03/27 13:27:52;;;;;;;24.10;12.48;;;512.80;716.80;;;;;;4951989;28;20062;-73